Time;durP1;ratioP1;P1;durP2;ratioP2;P2;SDS_P1;SDS_P2;PMS_P1;PMS_P2;Temp;Humidity;BMP_temperature;BMP_pressure;BME280_temperature;BME280_humidity;BME280_pressure;Samples;Min_cycle;Max_cycle;Signal;HPM_P1;HPM_P2
2023/08/16 00:01:23;;;;;;;41.03;27.70;;;19.30;99.90;;;;;;5033791;28;20183;-72
2023/08/16 00:03:49;;;;;;;40.63;27.87;;;19.30;99.90;;;;;;5033713;28;20206;-72
2023/08/16 00:06:15;;;;;;;40.00;27.27;;;19.30;99.90;;;;;;5033851;28;20206;-72
2023/08/16 00:08:41;;;;;;;41.23;27.30;;;19.30;99.90;;;;;;5034029;28;20163;-72
2023/08/16 00:11:07;;;;;;;41.73;27.70;;;19.40;99.90;;;;;;5032729;28;20198;-73
2023/08/16 00:13:33;;;;;;;41.23;27.73;;;19.30;99.90;;;;;;5033627;28;20294;-73
2023/08/16 00:16:00;;;;;;;47.10;28.43;;;19.30;99.90;;;;;;5033773;28;20257;-73
2023/08/16 00:18:27;;;;;;;44.43;28.57;;;19.30;99.90;;;;;;5033387;28;20179;-73
2023/08/16 00:20:53;;;;;;;45.50;29.50;;;19.30;99.90;;;;;;5033517;28;20174;-72
2023/08/16 00:23:18;;;;;;;45.30;29.40;;;19.20;99.90;;;;;;5033201;28;20207;-73
2023/08/16 00:25:44;;;;;;;41.77;27.63;;;19.30;99.90;;;;;;5032386;28;20233;-73
2023/08/16 00:28:09;;;;;;;44.37;28.33;;;19.20;99.90;;;;;;5033389;28;20248;-73
2023/08/16 00:30:35;;;;;;;48.40;29.67;;;19.20;99.90;;;;;;5033564;28;20534;-72
2023/08/16 00:33:01;;;;;;;55.27;29.53;;;19.10;99.90;;;;;;5033195;28;20188;-72
2023/08/16 00:35:26;;;;;;;51.33;29.97;;;19.10;99.90;;;;;;5033106;28;20179;-73
2023/08/16 00:37:52;;;;;;;46.13;28.80;;;19.20;99.90;;;;;;5033054;28;20317;-72
2023/08/16 00:40:18;;;;;;;43.33;28.17;;;19.20;99.90;;;;;;5033326;28;20187;-72
2023/08/16 00:42:43;;;;;;;46.77;28.43;;;19.20;99.90;;;;;;5033035;28;20210;-72
2023/08/16 00:45:09;;;;;;;47.73;28.70;;;19.10;99.90;;;;;;5033329;28;20247;-72
2023/08/16 00:47:35;;;;;;;48.77;28.17;;;19.10;99.90;;;;;;5033205;28;20210;-72
2023/08/16 00:50:02;;;;;;;57.60;29.57;;;19.10;99.90;;;;;;5031984;28;20238;-72
2023/08/16 00:52:29;;;;;;;48.35;30.02;;;19.10;99.90;;;;;;5032445;28;20171;-72
2023/08/16 00:54:55;;;;;;;45.28;28.58;;;19.00;99.90;;;;;;5033094;28;20198;-72
2023/08/16 00:57:21;;;;;;;48.13;29.50;;;19.00;99.90;;;;;;5033076;28;20171;-72
2023/08/16 00:59:46;;;;;;;45.23;29.80;;;19.00;99.90;;;;;;5033017;28;20259;-72
2023/08/16 01:02:17;;;;;;;43.03;28.67;;;19.00;99.90;;;;;;5032408;28;20204;-72
2023/08/16 01:04:43;;;;;;;44.83;29.70;;;18.90;99.90;;;;;;5032943;28;20191;-72
2023/08/16 01:07:09;;;;;;;41.77;27.87;;;18.90;99.90;;;;;;5032997;28;20172;-72
2023/08/16 01:09:35;;;;;;;47.13;30.70;;;18.80;99.90;;;;;;5032861;28;20714;-72
2023/08/16 01:12:31;;;;;;;48.17;29.80;;;18.80;99.90;;;;;;5032084;28;20446;-72
2023/08/16 01:15:15;;;;;;;47.00;31.43;;;18.70;99.90;;;;;;5032405;28;20218;-72
2023/08/16 01:17:43;;;;;;;50.97;31.53;;;18.80;99.90;;;;;;5031429;28;20175;-72
2023/08/16 01:20:10;;;;;;;57.03;31.93;;;18.80;99.90;;;;;;5032072;28;20206;-72
2023/08/16 01:22:47;;;;;;;59.63;32.85;;;18.80;99.90;;;;;;5031489;28;20299;-72
2023/08/16 01:25:21;;;;;;;51.63;32.72;;;18.80;99.90;;;;;;5032497;28;20174;-72
2023/08/16 01:27:48;;;;;;;63.20;33.03;;;18.80;99.90;;;;;;5032245;28;20175;-72
2023/08/16 01:30:14;;;;;;;58.63;32.80;;;18.70;99.90;;;;;;5032288;28;20171;-72
2023/08/16 01:32:40;;;;;;;57.23;34.80;;;18.60;99.90;;;;;;5031122;28;20176;-72
2023/08/16 01:35:06;;;;;;;52.43;32.77;;;18.50;99.90;;;;;;5032320;28;20242;-72
2023/08/16 01:37:32;;;;;;;62.43;33.00;;;18.50;99.90;;;;;;5032207;28;20172;-72
2023/08/16 01:40:01;;;;;;;54.90;31.03;;;18.50;99.90;;;;;;5030848;28;20176;-72
2023/08/16 01:42:29;;;;;;;48.40;31.77;;;18.50;99.90;;;;;;5031103;28;20199;-72
2023/08/16 01:44:58;;;;;;;48.37;32.07;;;18.50;99.90;;;;;;5031117;28;20238;-72
2023/08/16 01:47:24;;;;;;;51.57;31.30;;;18.50;99.90;;;;;;5030418;28;20178;-73
2023/08/16 01:49:50;;;;;;;51.63;32.10;;;18.50;99.90;;;;;;5030168;28;20545;-72
2023/08/16 01:52:16;;;;;;;45.83;30.60;;;18.50;99.90;;;;;;5030216;28;20171;-72
2023/08/16 01:54:42;;;;;;;53.03;31.57;;;18.50;99.90;;;;;;5031931;28;20203;-72
2023/08/16 01:57:07;;;;;;;46.27;27.53;;;18.40;99.90;;;;;;5030102;28;20237;-72
2023/08/16 01:59:33;;;;;;;47.97;27.97;;;18.30;99.90;;;;;;5031981;28;20175;-72
2023/08/16 02:02:00;;;;;;;47.57;30.27;;;18.20;99.90;;;;;;5031244;28;20205;-72
2023/08/16 02:04:25;;;;;;;48.73;28.73;;;18.20;99.90;;;;;;5031474;28;20217;-72
2023/08/16 02:06:52;;;;;;;47.63;29.23;;;18.10;99.90;;;;;;5031945;28;20255;-72
2023/08/16 02:09:19;;;;;;;46.67;27.47;;;18.00;99.90;;;;;;5031746;28;20167;-74
2023/08/16 02:11:44;;;;;;;47.00;29.20;;;18.00;99.90;;;;;;5031063;28;20175;-72
2023/08/16 02:14:10;;;;;;;54.93;30.63;;;18.00;99.90;;;;;;5031342;28;20191;-73
2023/08/16 02:16:35;;;;;;;49.13;29.03;;;18.00;99.90;;;;;;5031428;28;20693;-73
2023/08/16 02:19:01;;;;;;;47.27;27.97;;;18.00;99.90;;;;;;5031359;28;20266;-73
2023/08/16 02:21:27;;;;;;;47.33;28.47;;;18.00;99.90;;;;;;5029564;28;20191;-72
2023/08/16 02:23:52;;;;;;;48.07;28.60;;;17.90;99.90;;;;;;5029249;28;20214;-72
2023/08/16 02:26:18;;;;;;;38.47;26.13;;;17.80;99.90;;;;;;5031676;28;20171;-73
2023/08/16 02:28:43;;;;;;;47.40;27.63;;;17.80;99.90;;;;;;5031682;28;20234;-72
2023/08/16 02:31:09;;;;;;;46.47;27.80;;;17.70;99.90;;;;;;5031289;28;20179;-72
2023/08/16 02:33:35;;;;;;;43.00;26.40;;;17.60;99.90;;;;;;5029977;28;20285;-73
2023/08/16 02:36:01;;;;;;;43.13;27.80;;;17.60;99.90;;;;;;5031626;28;20180;-72
2023/08/16 02:38:28;;;;;;;52.13;28.57;;;17.60;99.90;;;;;;5031242;28;20262;-72
2023/08/16 02:40:54;;;;;;;41.60;26.23;;;17.60;99.90;;;;;;5031634;28;20182;-71
2023/08/16 02:43:20;;;;;;;46.30;28.40;;;17.60;99.90;;;;;;5030748;28;20207;-72
2023/08/16 02:45:45;;;;;;;48.13;29.40;;;17.60;99.90;;;;;;5031544;28;20174;-72
2023/08/16 02:48:11;;;;;;;46.60;28.80;;;17.60;99.90;;;;;;5031297;28;20183;-73
2023/08/16 02:50:37;;;;;;;57.53;29.93;;;17.60;99.90;;;;;;5031434;28;20171;-73
2023/08/16 02:53:03;;;;;;;51.87;29.87;;;17.70;99.90;;;;;;5030718;28;20202;-72
2023/08/16 02:55:29;;;;;;;52.80;29.03;;;17.70;99.90;;;;;;5029743;28;20202;-72
2023/08/16 02:57:55;;;;;;;55.00;29.93;;;17.70;99.90;;;;;;5029664;28;20206;-72
2023/08/16 03:00:21;;;;;;;56.43;30.07;;;17.70;99.90;;;;;;5031240;28;20634;-72
2023/08/16 03:02:46;;;;;;;49.80;28.27;;;17.80;99.90;;;;;;5030918;28;20294;-72
2023/08/16 03:05:12;;;;;;;47.80;27.70;;;17.80;99.90;;;;;;5031082;28;20175;-72
2023/08/16 03:07:39;;;;;;;45.87;27.43;;;17.80;99.90;;;;;;5031340;28;20557;-73
2023/08/16 03:10:06;;;;;;;44.93;27.60;;;17.70;99.90;;;;;;5031145;28;20171;-72
2023/08/16 03:12:32;;;;;;;45.50;27.60;;;17.70;99.90;;;;;;5029269;28;20186;-72
2023/08/16 03:14:57;;;;;;;50.23;28.20;;;17.60;99.90;;;;;;5030909;28;20199;-72
2023/08/16 03:17:23;;;;;;;50.53;28.63;;;17.70;99.90;;;;;;5030930;28;20638;-73
2023/08/16 03:19:49;;;;;;;43.07;26.63;;;17.70;99.90;;;;;;5031131;28;20186;-71
2023/08/16 03:22:15;;;;;;;53.60;28.93;;;17.70;99.90;;;;;;5030592;28;20278;-73
2023/08/16 03:24:40;;;;;;;50.17;27.27;;;17.80;99.90;;;;;;5030714;28;20551;-72
2023/08/16 03:27:06;;;;;;;49.80;28.23;;;17.90;99.90;;;;;;5029504;28;20171;-72
2023/08/16 03:29:31;;;;;;;49.43;28.33;;;17.90;99.90;;;;;;5030848;28;20597;-72
2023/08/16 03:31:57;;;;;;;43.37;27.13;;;18.00;99.90;;;;;;5030709;28;20206;-72
2023/08/16 03:34:24;;;;;;;50.83;27.60;;;18.00;99.90;;;;;;5030816;28;20297;-72
2023/08/16 03:36:49;;;;;;;52.00;27.53;;;18.00;99.90;;;;;;5031286;28;20171;-73
2023/08/16 03:39:15;;;;;;;44.33;27.03;;;18.00;99.90;;;;;;5030753;28;20175;-72
2023/08/16 03:41:41;;;;;;;49.30;28.43;;;18.00;99.90;;;;;;5030821;28;20168;-72
2023/08/16 03:44:06;;;;;;;46.17;25.60;;;18.00;99.90;;;;;;5030835;28;20237;-72
2023/08/16 03:46:33;;;;;;;44.13;26.17;;;18.00;99.90;;;;;;5030665;28;20188;-72
2023/08/16 03:48:59;;;;;;;45.53;26.67;;;18.00;99.90;;;;;;5031024;28;20171;-72
2023/08/16 03:51:24;;;;;;;49.03;28.00;;;18.00;99.90;;;;;;5030653;28;20701;-73
2023/08/16 03:53:50;;;;;;;50.77;28.37;;;18.00;99.90;;;;;;5030773;28;20192;-72
2023/08/16 03:56:16;;;;;;;51.17;29.17;;;18.10;99.90;;;;;;5033091;28;20187;-72
2023/08/16 03:58:41;;;;;;;48.63;28.27;;;18.10;99.90;;;;;;5034580;28;20179;-72
2023/08/16 04:01:07;;;;;;;49.17;28.37;;;18.00;99.90;;;;;;5034334;28;20175;-72
2023/08/16 04:03:33;;;;;;;45.40;27.13;;;18.00;99.90;;;;;;5033511;28;20219;-71
2023/08/16 04:05:58;;;;;;;50.10;28.47;;;18.00;99.90;;;;;;5033715;28;20249;-72
2023/08/16 04:08:24;;;;;;;47.60;27.07;;;18.00;99.90;;;;;;5033927;28;20679;-71
2023/08/16 04:10:49;;;;;;;46.90;26.43;;;18.00;99.90;;;;;;5034346;28;20172;-72
2023/08/16 04:13:16;;;;;;;42.37;26.83;;;18.00;99.90;;;;;;5033615;28;20194;-72
2023/08/16 04:15:42;;;;;;;43.50;27.63;;;18.00;99.90;;;;;;5034237;28;20183;-72
2023/08/16 04:18:08;;;;;;;50.90;28.03;;;18.00;99.90;;;;;;5033939;28;20175;-72
2023/08/16 04:20:34;;;;;;;48.73;28.17;;;18.10;99.90;;;;;;5033557;28;20179;-72
2023/08/16 04:22:59;;;;;;;53.57;27.70;;;18.10;99.90;;;;;;5033426;28;20700;-72
2023/08/16 04:25:25;;;;;;;47.57;26.47;;;18.20;99.90;;;;;;5033874;28;20178;-72
2023/08/16 04:27:51;;;;;;;45.90;27.47;;;18.30;99.90;;;;;;5032546;28;20187;-72
2023/08/16 04:30:17;;;;;;;48.40;26.47;;;18.30;99.90;;;;;;5033647;28;20164;-72
2023/08/16 04:32:42;;;;;;;39.93;25.37;;;18.30;99.90;;;;;;5033547;28;20571;-72
2023/08/16 04:35:09;;;;;;;44.20;27.53;;;18.40;99.90;;;;;;5033764;28;20293;-72
2023/08/16 04:37:34;;;;;;;42.00;27.23;;;18.50;99.90;;;;;;5033385;28;20176;-72
2023/08/16 04:40:00;;;;;;;43.70;26.60;;;18.50;99.90;;;;;;5033557;28;20583;-72
2023/08/16 04:42:26;;;;;;;43.77;28.03;;;18.60;99.90;;;;;;5033647;28;20668;-72
2023/08/16 04:44:52;;;;;;;48.80;26.50;;;18.60;99.90;;;;;;5033580;28;20214;-72
2023/08/16 04:47:18;;;;;;;41.07;26.13;;;18.60;99.90;;;;;;5032029;28;20168;-72
2023/08/16 04:49:43;;;;;;;47.27;26.40;;;18.60;99.90;;;;;;5033504;28;20182;-73
2023/08/16 04:52:09;;;;;;;42.10;26.47;;;18.60;99.90;;;;;;5032833;28;20186;-72
2023/08/16 04:54:34;;;;;;;44.23;25.73;;;18.60;99.90;;;;;;5031341;28;20317;-72
2023/08/16 04:57:00;;;;;;;44.67;25.67;;;18.70;99.90;;;;;;5032316;28;20222;-72
2023/08/16 04:59:26;;;;;;;45.87;25.53;;;18.80;99.90;;;;;;5031145;28;20625;-72
2023/08/16 05:01:51;;;;;;;39.57;23.70;;;18.80;99.90;;;;;;5029913;28;20193;-72
2023/08/16 05:04:17;;;;;;;42.93;25.00;;;18.80;99.90;;;;;;5032281;28;20238;-72
2023/08/16 05:06:42;;;;;;;39.23;26.07;;;18.80;99.90;;;;;;5033000;28;20210;-72
2023/08/16 05:09:08;;;;;;;41.70;25.33;;;18.90;99.90;;;;;;5032601;28;20172;-72
2023/08/16 05:11:35;;;;;;;43.07;23.97;;;18.90;99.90;;;;;;5032577;28;20238;-72
2023/08/16 05:14:00;;;;;;;41.27;24.53;;;19.00;99.90;;;;;;5032371;28;20192;-72
2023/08/16 05:16:26;;;;;;;40.07;24.73;;;19.00;99.90;;;;;;5032590;28;20588;-73
2023/08/16 05:18:54;;;;;;;40.97;24.20;;;19.10;99.90;;;;;;5032497;28;20202;-72
2023/08/16 05:21:20;;;;;;;42.40;24.00;;;19.20;99.90;;;;;;5032390;28;20181;-72
2023/08/16 05:23:46;;;;;;;33.70;22.60;;;19.10;99.90;;;;;;5032304;28;20211;-72
2023/08/16 05:26:11;;;;;;;38.83;22.77;;;19.10;99.90;;;;;;5032266;28;20218;-72
2023/08/16 05:28:37;;;;;;;37.40;22.33;;;19.00;99.90;;;;;;5032244;28;20182;-72
2023/08/16 05:31:10;;;;;;;36.37;22.70;;;19.10;99.90;;;;;;5032228;28;20652;-73
2023/08/16 05:33:36;;;;;;;39.73;23.63;;;19.10;99.90;;;;;;5031757;28;20195;-72
2023/08/16 05:36:03;;;;;;;37.23;23.00;;;19.10;99.90;;;;;;5032085;28;20313;-73
2023/08/16 05:38:28;;;;;;;34.80;22.83;;;19.20;99.90;;;;;;5032173;28;20171;-73
2023/08/16 05:40:54;;;;;;;34.60;22.50;;;19.20;99.90;;;;;;5030043;28;20191;-73
2023/08/16 05:43:20;;;;;;;34.90;22.73;;;19.10;99.90;;;;;;5031522;28;20207;-73
2023/08/16 05:45:46;;;;;;;36.07;24.30;;;19.10;99.90;;;;;;5030636;28;20260;-73
2023/08/16 05:48:11;;;;;;;54.77;26.47;;;19.10;99.90;;;;;;5031761;28;20186;-73
2023/08/16 05:50:37;;;;;;;42.93;25.43;;;19.10;99.90;;;;;;5031654;28;20175;-73
2023/08/16 05:53:03;;;;;;;45.57;25.07;;;19.10;99.90;;;;;;5031285;28;20264;-73
2023/08/16 05:55:29;;;;;;;42.77;27.00;;;19.20;99.90;;;;;;5029649;28;20175;-73
2023/08/16 05:57:55;;;;;;;45.20;26.93;;;19.20;99.90;;;;;;5031888;28;20225;-73
2023/08/16 06:00:21;;;;;;;47.27;26.10;;;19.20;99.90;;;;;;5029921;28;20266;-73
2023/08/16 06:02:47;;;;;;;49.43;26.73;;;19.30;99.90;;;;;;5031084;28;20206;-73
2023/08/16 06:05:12;;;;;;;42.50;24.47;;;19.40;99.90;;;;;;5031118;28;20537;-73
2023/08/16 06:07:38;;;;;;;42.10;24.23;;;19.50;99.90;;;;;;5031491;28;20163;-73
2023/08/16 06:10:05;;;;;;;46.33;26.37;;;19.60;99.90;;;;;;5030072;28;20693;-74
2023/08/16 06:12:31;;;;;;;40.23;24.23;;;19.60;99.90;;;;;;5027986;28;20202;-73
2023/08/16 06:14:57;;;;;;;38.20;24.63;;;19.60;99.90;;;;;;5031547;28;20642;-73
2023/08/16 06:17:22;;;;;;;41.20;24.43;;;19.70;99.90;;;;;;5029913;28;20254;-73
2023/08/16 06:19:48;;;;;;;39.07;24.33;;;19.70;99.90;;;;;;5031487;28;20186;-73
2023/08/16 06:22:13;;;;;;;36.10;22.53;;;19.80;99.90;;;;;;5030549;28;20257;-73
2023/08/16 06:24:39;;;;;;;34.17;22.73;;;19.80;99.90;;;;;;5031088;28;20191;-73
2023/08/16 06:27:07;;;;;;;34.13;21.43;;;19.90;99.90;;;;;;5031107;28;20175;-73
2023/08/16 06:29:32;;;;;;;29.63;20.27;;;19.90;99.90;;;;;;5031116;28;20657;-73
2023/08/16 06:31:59;;;;;;;30.58;20.88;;;20.10;99.90;;;;;;5030896;28;20317;-73
2023/08/16 06:34:24;;;;;;;30.17;18.87;;;20.20;99.90;;;;;;5030745;28;20230;-73
2023/08/16 06:36:50;;;;;;;23.85;17.92;;;20.20;99.90;;;;;;5031463;28;20203;-72
2023/08/16 06:39:17;;;;;;;24.33;17.93;;;20.30;99.90;;;;;;5030528;28;20202;-73
2023/08/16 06:41:42;;;;;;;22.23;16.27;;;20.20;99.90;;;;;;5031117;28;20199;-73
2023/08/16 06:44:08;;;;;;;25.40;15.77;;;20.20;99.90;;;;;;5031305;28;20253;-73
2023/08/16 06:46:34;;;;;;;21.58;15.35;;;20.20;99.90;;;;;;5031761;28;20182;-72
2023/08/16 06:49:00;;;;;;;24.17;15.63;;;20.20;99.90;;;;;;5030797;28;20171;-73
2023/08/16 06:51:26;;;;;;;25.37;16.20;;;20.40;99.90;;;;;;5030662;28;20625;-73
2023/08/16 06:53:51;;;;;;;20.60;15.40;;;20.50;99.90;;;;;;5029669;28;20649;-72
2023/08/16 06:56:17;;;;;;;18.43;15.23;;;20.50;99.90;;;;;;5030623;28;20700;-73
2023/08/16 06:58:43;;;;;;;19.87;15.60;;;20.60;99.90;;;;;;5031106;28;20270;-72
2023/08/16 07:01:09;;;;;;;19.20;15.25;;;20.70;99.90;;;;;;5031025;28;20179;-72
2023/08/16 07:03:35;;;;;;;21.05;14.93;;;20.80;99.90;;;;;;5030675;28;20288;-73
2023/08/16 07:06:01;;;;;;;22.45;14.85;;;20.70;99.90;;;;;;5031272;28;20186;-73
2023/08/16 07:08:27;;;;;;;17.80;15.00;;;20.70;99.90;;;;;;5030980;28;20171;-72
2023/08/16 07:10:54;;;;;;;17.30;13.70;;;20.60;99.90;;;;;;5031252;28;20175;-72
2023/08/16 07:13:20;;;;;;;17.47;15.07;;;20.60;99.90;;;;;;5030422;28;20192;-72
2023/08/16 07:15:45;;;;;;;18.67;14.43;;;20.50;99.90;;;;;;5030975;28;20209;-73
2023/08/16 07:18:11;;;;;;;16.20;13.63;;;20.60;99.90;;;;;;5030664;28;20197;-72
2023/08/16 07:20:37;;;;;;;16.50;14.40;;;20.70;99.90;;;;;;5030865;28;20222;-73
2023/08/16 07:23:03;;;;;;;21.75;15.82;;;20.80;99.90;;;;;;5030617;28;20211;-72
2023/08/16 07:25:29;;;;;;;18.85;14.02;;;20.80;99.90;;;;;;5029441;28;20266;-72
2023/08/16 07:27:54;;;;;;;21.20;15.07;;;20.80;99.90;;;;;;5029006;28;20270;-72
2023/08/16 07:30:20;;;;;;;21.88;14.45;;;20.80;99.90;;;;;;5031785;28;20222;-72
2023/08/16 07:32:46;;;;;;;19.52;15.13;;;20.80;99.90;;;;;;5033974;28;20186;-72
2023/08/16 07:35:11;;;;;;;20.45;14.25;;;20.80;99.90;;;;;;5033379;28;20187;-72
2023/08/16 07:37:37;;;;;;;17.30;13.95;;;20.80;99.90;;;;;;5034382;28;20171;-73
2023/08/16 07:40:05;;;;;;;23.10;13.82;;;20.80;99.90;;;;;;5033719;28;20539;-73
2023/08/16 07:42:31;;;;;;;19.40;14.88;;;20.90;99.90;;;;;;5032596;28;20195;-73
2023/08/16 07:44:58;;;;;;;16.30;13.95;;;21.00;99.90;;;;;;5033740;28;20204;-73
2023/08/16 07:47:25;;;;;;;22.55;14.77;;;21.00;99.90;;;;;;5033541;28;20172;-72
2023/08/16 07:49:50;;;;;;;19.48;14.82;;;21.10;99.90;;;;;;5033166;28;20179;-72
2023/08/16 07:52:16;;;;;;;23.95;14.13;;;21.20;99.90;;;;;;5032806;28;20183;-72
2023/08/16 07:54:42;;;;;;;18.33;15.45;;;21.30;99.90;;;;;;5033600;28;20799;-72
2023/08/16 07:57:07;;;;;;;21.10;14.43;;;21.30;99.90;;;;;;5022389;28;20180;-72
2023/08/16 07:59:33;;;;;;;21.73;15.07;;;21.30;99.90;;;;;;5034178;28;20202;-72
2023/08/16 08:01:59;;;;;;;16.83;13.68;;;21.30;99.90;;;;;;5033204;28;20182;-72
2023/08/16 08:04:25;;;;;;;19.92;15.05;;;21.40;99.90;;;;;;5033351;28;20211;-72
2023/08/16 08:06:51;;;;;;;18.42;14.60;;;21.50;99.90;;;;;;5033217;28;20641;-72
2023/08/16 08:09:17;;;;;;;16.40;13.77;;;21.80;99.90;;;;;;5034236;28;20218;-72
2023/08/16 08:11:42;;;;;;;17.55;13.15;;;22.20;99.90;;;;;;5033671;28;20167;-72
2023/08/16 08:14:08;;;;;;;15.82;13.00;;;22.60;99.90;;;;;;5032553;28;20192;-72
2023/08/16 08:16:34;;;;;;;15.65;13.02;;;22.70;99.90;;;;;;5033830;28;20183;-72
2023/08/16 08:18:59;;;;;;;18.50;15.07;;;22.60;99.90;;;;;;5031864;28;20607;-72
2023/08/16 08:21:25;;;;;;;17.63;15.20;;;22.60;99.90;;;;;;5033514;28;20209;-72
2023/08/16 08:23:51;;;;;;;20.20;16.27;;;22.60;99.90;;;;;;5033701;28;20211;-72
2023/08/16 08:26:17;;;;;;;20.63;17.90;;;22.60;99.90;;;;;;5033558;28;20175;-72
2023/08/16 08:28:44;;;;;;;21.95;18.52;;;22.70;99.90;;;;;;5033788;28;20656;-72
2023/08/16 08:31:10;;;;;;;21.95;18.88;;;22.80;99.90;;;;;;5033885;28;20271;-72
2023/08/16 08:33:35;;;;;;;20.77;17.92;;;22.90;99.90;;;;;;5033609;28;20266;-72
2023/08/16 08:36:03;;;;;;;23.35;18.83;;;23.00;99.90;;;;;;5033624;28;20184;-72
2023/08/16 08:38:29;;;;;;;19.25;17.05;;;23.20;99.90;;;;;;5033411;28;20697;-72
2023/08/16 08:40:58;;;;;;;24.45;17.35;;;23.40;99.90;;;;;;5033198;28;20178;-72
2023/08/16 08:43:32;;;;;;;20.65;16.20;;;23.80;99.90;;;;;;5032885;28;20438;-72
2023/08/16 08:45:58;;;;;;;17.80;15.55;;;24.00;99.90;;;;;;5033421;28;20237;-72
2023/08/16 08:48:26;;;;;;;18.33;15.40;;;24.10;99.90;;;;;;5033260;28;20236;-72
2023/08/16 08:50:53;;;;;;;20.40;16.30;;;24.20;99.90;;;;;;5033241;28;20167;-72
2023/08/16 08:53:20;;;;;;;20.85;16.00;;;24.20;99.90;;;;;;5033093;28;20188;-72
2023/08/16 08:55:47;;;;;;;20.30;15.93;;;24.30;99.90;;;;;;5033380;28;20178;-72
2023/08/16 08:58:14;;;;;;;22.65;16.77;;;24.30;99.90;;;;;;5033231;28;20716;-72
2023/08/16 09:00:41;;;;;;;21.95;16.27;;;24.00;99.90;;;;;;5033398;28;20179;-72
2023/08/16 09:03:07;;;;;;;21.15;16.67;;;23.80;99.90;;;;;;5032849;28;20211;-72
2023/08/16 09:05:37;;;;;;;21.58;18.20;;;23.60;99.90;;;;;;5033055;28;20632;-72
2023/08/16 09:08:04;;;;;;;22.35;17.80;;;23.30;99.90;;;;;;5033373;28;20172;-72
2023/08/16 09:10:36;;;;;;;25.13;17.80;;;23.20;99.90;;;;;;5032743;28;20653;-72
2023/08/16 09:13:04;;;;;;;26.45;19.02;;;23.00;99.90;;;;;;5032713;28;20226;-72
2023/08/16 09:15:29;;;;;;;23.65;17.65;;;22.90;99.90;;;;;;5032471;28;20179;-72
2023/08/16 09:18:06;;;;;;;21.15;16.98;;;22.80;99.90;;;;;;5031712;28;20562;-72
2023/08/16 09:20:32;;;;;;;19.88;17.40;;;22.80;99.90;;;;;;5032496;28;20194;-72
2023/08/16 09:22:57;;;;;;;22.35;16.30;;;22.80;99.90;;;;;;5032225;28;20214;-72
2023/08/16 09:25:24;;;;;;;17.63;15.65;;;22.90;99.90;;;;;;5032785;28;20315;-72
2023/08/16 09:27:52;;;;;;;18.92;14.95;;;23.20;99.90;;;;;;5032512;28;20609;-72
2023/08/16 09:30:18;;;;;;;16.58;14.52;;;23.40;99.90;;;;;;5032366;28;20175;-72
2023/08/16 09:32:45;;;;;;;17.38;14.80;;;23.50;99.90;;;;;;5032101;28;20517;-72
2023/08/16 09:35:16;;;;;;;17.30;15.18;;;23.60;99.90;;;;;;5032500;28;20246;-72
2023/08/16 09:37:45;;;;;;;17.02;14.15;;;23.60;99.90;;;;;;5032531;28;20521;-72
2023/08/16 09:40:11;;;;;;;18.70;15.13;;;23.80;99.90;;;;;;5032477;28;20178;-72
2023/08/16 09:42:37;;;;;;;21.35;14.23;;;23.80;99.90;;;;;;5031774;28;20699;-72
2023/08/16 09:45:03;;;;;;;17.27;15.15;;;24.00;99.90;;;;;;5032608;28;20176;-72
2023/08/16 09:47:30;;;;;;;18.85;15.07;;;24.00;99.90;;;;;;5032203;28;20168;-72
2023/08/16 09:49:57;;;;;;;18.60;14.82;;;23.80;99.90;;;;;;5032250;28;20171;-72
2023/08/16 09:52:24;;;;;;;15.95;14.27;;;23.70;99.90;;;;;;5030850;28;20589;-72
2023/08/16 09:54:54;;;;;;;16.48;14.63;;;23.50;99.90;;;;;;5032084;28;20242;-72
2023/08/16 09:57:20;;;;;;;17.45;14.82;;;23.50;99.90;;;;;;5032049;28;20175;-72
2023/08/16 09:59:47;;;;;;;17.65;13.98;;;23.70;99.90;;;;;;5032288;28;20207;-71
2023/08/16 10:02:13;;;;;;;18.92;14.50;;;23.80;99.90;;;;;;5032355;28;20544;-72
2023/08/16 10:04:39;;;;;;;16.48;14.57;;;23.70;99.90;;;;;;5032242;28;20191;-71
2023/08/16 10:07:08;;;;;;;21.02;14.80;;;23.70;99.90;;;;;;5032698;28;20250;-72
2023/08/16 10:09:34;;;;;;;18.23;14.77;;;23.80;99.90;;;;;;5032433;28;20179;-72
2023/08/16 10:12:03;;;;;;;20.40;15.35;;;23.80;99.90;;;;;;5032209;28;20226;-72
2023/08/16 10:14:33;;;;;;;17.85;14.65;;;23.90;99.90;;;;;;5031612;28;20275;-72
2023/08/16 10:17:02;;;;;;;16.77;14.63;;;23.90;99.90;;;;;;5031930;28;20245;-71
2023/08/16 10:19:33;;;;;;;19.67;14.27;;;24.10;99.90;;;;;;5030781;28;20225;-72
2023/08/16 10:22:00;;;;;;;16.10;14.40;;;24.20;99.90;;;;;;5031414;28;20178;-71
2023/08/16 10:24:30;;;;;;;16.70;14.88;;;24.30;99.90;;;;;;5031389;28;20573;-72
2023/08/16 10:26:59;;;;;;;16.77;13.18;;;24.20;99.90;;;;;;5031666;28;20163;-71
2023/08/16 10:29:28;;;;;;;15.57;13.95;;;24.40;99.90;;;;;;5031439;28;20180;-72
2023/08/16 10:31:54;;;;;;;16.85;15.05;;;24.50;99.90;;;;;;5031781;28;20163;-72
2023/08/16 10:34:21;;;;;;;17.33;14.63;;;24.60;99.90;;;;;;5031179;28;20195;-71
2023/08/16 10:36:47;;;;;;;15.77;14.00;;;24.60;99.90;;;;;;5031528;28;20225;-71
2023/08/16 10:39:24;;;;;;;20.05;14.30;;;24.80;99.90;;;;;;5031591;28;20171;-72
2023/08/16 10:41:53;;;;;;;19.05;14.27;;;25.00;99.90;;;;;;5031266;28;20538;-72
2023/08/16 10:44:25;;;;;;;16.98;14.40;;;25.50;99.90;;;;;;5031936;28;20258;-71
2023/08/16 10:46:51;;;;;;;17.85;15.10;;;26.10;99.90;;;;;;5031447;28;20171;-71
2023/08/16 10:49:19;;;;;;;19.95;15.30;;;26.40;99.90;;;;;;5031541;28;20176;-72
2023/08/16 10:51:47;;;;;;;15.27;13.65;;;26.40;99.90;;;;;;5031078;28;20209;-71
2023/08/16 10:54:13;;;;;;;18.73;14.52;;;26.50;99.90;;;;;;5031220;28;20192;-71
2023/08/16 10:56:44;;;;;;;15.70;14.15;;;26.80;99.90;;;;;;5031182;28;20233;-71
2023/08/16 10:59:12;;;;;;;18.15;15.38;;;27.20;99.90;;;;;;5031290;28;20239;-71
2023/08/16 11:01:47;;;;;;;20.85;16.63;;;27.70;99.90;;;;;;5031003;28;20704;-71
2023/08/16 11:04:13;;;;;;;16.70;14.88;;;28.00;99.90;;;;;;5032424;28;20254;-71
2023/08/16 11:06:39;;;;;;;19.55;13.95;;;28.10;99.90;;;;;;5035318;28;20186;-71
2023/08/16 11:09:06;;;;;;;16.23;13.55;;;28.40;99.90;;;;;;5035262;28;20182;-72
2023/08/16 11:11:33;;;;;;;16.92;13.48;;;28.90;99.90;;;;;;5034857;28;20172;-72
2023/08/16 11:14:00;;;;;;;13.80;12.43;;;28.80;99.90;;;;;;5035066;28;20566;-71
2023/08/16 11:16:26;;;;;;;15.82;12.73;;;28.80;99.90;;;;;;5035089;28;20651;-71
2023/08/16 11:18:52;;;;;;;13.77;11.95;;;28.80;99.90;;;;;;5035015;28;20428;-71
2023/08/16 11:21:19;;;;;;;15.13;13.52;;;28.80;99.90;;;;;;5035033;28;20266;-71
2023/08/16 11:23:44;;;;;;;17.23;12.85;;;28.40;99.90;;;;;;5034829;28;20248;-71
2023/08/16 11:26:10;;;;;;;14.82;13.32;;;28.30;99.90;;;;;;5035071;28;20254;-71
2023/08/16 11:28:38;;;;;;;14.80;12.23;;;28.10;99.90;;;;;;5034668;28;20187;-71
2023/08/16 11:31:06;;;;;;;18.10;12.07;;;27.70;99.90;;;;;;5033875;28;20234;-71
2023/08/16 11:33:36;;;;;;;14.02;12.63;;;27.30;99.90;;;;;;5034368;28;20195;-71
2023/08/16 11:36:12;;;;;;;15.00;12.00;;;27.40;99.90;;;;;;5034789;28;20194;-71
2023/08/16 11:38:41;;;;;;;15.30;11.25;;;27.50;99.90;;;;;;5034680;28;20256;-70
2023/08/16 11:41:07;;;;;;;13.38;12.05;;;27.50;99.90;;;;;;5034730;28;20186;-71
2023/08/16 11:43:35;;;;;;;13.93;11.88;;;27.50;99.90;;;;;;5034092;28;20627;-71
2023/08/16 11:46:01;;;;;;;14.77;11.63;;;27.40;99.90;;;;;;5034600;28;20177;-71
2023/08/16 11:48:29;;;;;;;10.88;9.77;;;27.30;99.90;;;;;;5034258;28;20175;-71
2023/08/16 11:50:58;;;;;;;12.30;11.05;;;27.40;99.90;;;;;;5034563;28;20203;-71
2023/08/16 11:53:31;;;;;;;11.95;10.70;;;27.90;99.90;;;;;;5033096;28;20583;-71
2023/08/16 11:56:01;;;;;;;12.88;11.05;;;28.10;99.90;;;;;;5030952;28;20180;-71
2023/08/16 11:58:27;;;;;;;11.68;10.27;;;28.50;99.90;;;;;;5034035;28;20179;-71
2023/08/16 12:00:54;;;;;;;12.25;10.95;;;28.90;99.90;;;;;;5034512;28;20579;-71
2023/08/16 12:03:19;;;;;;;15.50;10.60;;;29.00;99.90;;;;;;5032313;28;20215;-70
2023/08/16 12:05:48;;;;;;;10.50;9.50;;;29.20;99.90;;;;;;5034423;28;20259;-71
2023/08/16 12:08:19;;;;;;;11.30;10.23;;;29.30;99.90;;;;;;5033003;28;20167;-71
2023/08/16 12:10:56;;;;;;;12.40;11.07;;;29.50;99.90;;;;;;5034183;28;20175;-71
2023/08/16 12:13:23;;;;;;;13.57;10.25;;;29.00;99.90;;;;;;5033566;28;20206;-71
2023/08/16 12:15:49;;;;;;;9.73;8.80;;;28.80;99.90;;;;;;5033641;28;20180;-72
2023/08/16 12:18:16;;;;;;;10.23;9.32;;;29.30;99.90;;;;;;5032893;28;20176;-71
2023/08/16 12:20:42;;;;;;;11.30;9.60;;;29.80;99.90;;;;;;5033885;28;20163;-71
2023/08/16 12:23:09;;;;;;;12.18;8.55;;;30.30;99.90;;;;;;5033666;28;20551;-71
2023/08/16 12:25:35;;;;;;;10.55;9.52;;;30.60;99.90;;;;;;5033660;28;20253;-71